Midland Airpark, TX

11:02 PM CST on December 16, 2017 (GMT -0600)
Midland

Weather History for KMDD - April, 2013

Change the Weather History Date:

Monday, April 22, 2013

  Actual Average (KMAF) Record (KMAF)
Temperature  
Mean Temperature 76 °F -  
Max Temperature 93 °F 77 °F 100 °F (1989)
Min Temperature 59 °F 49 °F 36 °F (1931)
Cooling Degree Days 11    
Growing Degree Days 26 (Base 50)    
Moisture  
Dew Point 38 °F    
Average Humidity 32    
Maximum Humidity 69    
Minimum Humidity 6    
Precipitation  
Precipitation 0.00 in - - ()
Sea Level Pressure  
Sea Level Pressure 29.91 in    
Wind  
Wind Speed 12 mph (SSW)    
Max Wind Speed 23 mph    
Max Gust Speed 28 mph    
Visibility 10 miles    
Events      
Averages and records for this station are not official NWS values.
T = Trace of Precipitation, MM = Missing Value Source: NWS Daily Summary

Daily Weather History Graph

Daily Weather History Graph

Search for Another Location

Airport or City:

Trip Planner

Search our weather history database for the weather conditions in past years. The results will help you decide how hot, cold, wet, or windy it might be!

Date:

Astronomy

Apr. 22, 2013 Rise Set
Actual Time 7:11 AM CDT 8:22 PM CDT
Civil Twilight 6:45 AM CDT 8:48 PM CDT
Nautical Twilight 6:15 AM CDT 9:18 PM CDT
Astronomical Twilight 5:44 AM CDT 9:50 PM CDT
Moon 5:23 PM CDT (4/22) 4:55 AM CDT (4/22)
Length of Visible Light 14h 02m
Length of Day
13h 11m
Waxing Gibbous, 88% of the Moon is Illuminated
Apr 22
Waxing Gibbous
Apr 25
Full
May 2
Last Quarter
May 9
New
May 17
First Quarter

Hourly Weather History & Observations

Time (CDT) Temp. Dew Point Humidity Pressure Visibility Wind Dir Wind Speed Gust Speed Precip Events Conditions
12:15 AM 68.4 °F 28.4 °F 22% 29.99 in 10.0 mi South 8.1 mph - N/A   Clear
12:35 AM 67.6 °F 29.5 °F 24% 29.99 in 10.0 mi South 8.1 mph - N/A   Clear
12:55 AM 67.6 °F 32.0 °F 27% 29.99 in 10.0 mi South 10.4 mph - N/A   Clear
1:15 AM 67.1 °F 33.6 °F 29% 29.99 in 10.0 mi South 9.2 mph - N/A   Clear
1:35 AM 66.7 °F 35.6 °F 32% 29.99 in 10.0 mi South 10.4 mph 16.1 mph N/A   Clear
1:55 AM 67.1 °F 36.5 °F 32% 29.98 in 10.0 mi South 12.7 mph - N/A   Clear
2:15 AM 67.1 °F 36.7 °F 33% 29.97 in 10.0 mi South 12.7 mph - N/A   Clear
2:35 AM 66.7 °F 37.0 °F 33% 29.97 in 10.0 mi South 10.4 mph - N/A   Clear
2:55 AM 66.4 °F 37.4 °F 34% 29.96 in 10.0 mi South 11.5 mph - N/A   Clear
3:15 AM 66.2 °F 38.3 °F 36% 29.95 in 10.0 mi South 12.7 mph - N/A   Clear
3:35 AM 66.2 °F 39.2 °F 37% 29.95 in 10.0 mi South 12.7 mph 17.3 mph N/A   Clear
3:55 AM 66.0 °F 39.7 °F 38% 29.95 in 10.0 mi South 11.5 mph - N/A   Clear
4:15 AM 65.1 °F 40.1 °F 40% 29.95 in 10.0 mi South 9.2 mph - N/A   Clear
4:35 AM 63.9 °F 41.0 °F 43% 29.95 in 10.0 mi SSE 8.1 mph - N/A   Clear
4:55 AM 61.7 °F 39.9 °F 45% 29.95 in 10.0 mi ESE 5.8 mph - N/A   Clear
5:15 AM 60.3 °F 40.3 °F 48% 29.95 in 10.0 mi SSE 5.8 mph - N/A   Clear
5:35 AM 61.9 °F 42.4 °F 49% 29.95 in 10.0 mi SSE 8.1 mph - N/A   Clear
5:55 AM 60.8 °F 42.4 °F 51% 29.95 in 10.0 mi South 8.1 mph - N/A   Clear
6:15 AM 60.3 °F 43.7 °F 54% 29.95 in 10.0 mi SSE 6.9 mph - N/A   Clear
6:35 AM 59.5 °F 44.1 °F 57% 29.95 in 10.0 mi SSE 6.9 mph - N/A   Clear
6:55 AM 59.4 °F 45.0 °F 59% 29.96 in 10.0 mi South 10.4 mph - N/A   Clear
7:15 AM 59.9 °F 45.9 °F 60% 29.96 in 10.0 mi South 12.7 mph - N/A   Clear
7:35 AM 61.2 °F 47.5 °F 61% 29.97 in 10.0 mi South 13.8 mph - N/A   Clear
7:55 AM 61.9 °F 48.9 °F 62% 29.97 in 10.0 mi South 18.4 mph 24.2 mph N/A   Clear
8:15 AM 62.2 °F 50.9 °F 66% 29.98 in 10.0 mi South 15.0 mph 20.7 mph N/A   Clear
8:35 AM 62.6 °F 52.2 °F 69% 29.98 in 10.0 mi South 16.1 mph 27.6 mph N/A   Clear
8:55 AM 63.5 °F 52.3 °F 67% 29.98 in 10.0 mi South 19.6 mph 25.3 mph N/A   Clear
9:15 AM 64.6 °F 52.7 °F 65% 29.99 in 10.0 mi South 18.4 mph 23.0 mph N/A   Clear
9:35 AM 66.2 °F 52.5 °F 61% 29.99 in 10.0 mi South 17.3 mph 24.2 mph N/A   Clear
9:55 AM 67.8 °F 52.3 °F 58% 29.99 in 10.0 mi South 17.3 mph 23.0 mph N/A   Clear
10:15 AM 68.9 °F 52.3 °F 55% 29.99 in 10.0 mi SSW 16.1 mph 21.9 mph N/A   Clear
10:35 AM 70.7 °F 51.8 °F 51% 29.99 in 10.0 mi South 13.8 mph 25.3 mph N/A   Clear
10:55 AM 72.7 °F 50.7 °F 46% 29.99 in 10.0 mi South 17.3 mph 26.5 mph N/A   Clear
11:15 AM 74.3 °F 50.2 °F 43% 29.99 in 10.0 mi SSW 17.3 mph 23.0 mph N/A   Clear
11:35 AM 76.5 °F 48.4 °F 37% 29.98 in 10.0 mi SSW 16.1 mph 21.9 mph N/A   Clear
11:55 AM 78.6 °F 46.6 °F 32% 29.98 in 10.0 mi SSW 16.1 mph 21.9 mph N/A   Clear
12:15 PM 80.8 °F 45.3 °F 29% 29.97 in 10.0 mi SSW 17.3 mph - N/A   Clear
12:35 PM 82.6 °F 39.7 °F 22% 29.96 in 10.0 mi SSW 15.0 mph 23.0 mph N/A   Clear
12:55 PM 82.4 °F 38.5 °F 21% 29.96 in 10.0 mi SSW 15.0 mph 23.0 mph N/A   Clear
1:15 PM 84.0 °F 37.0 °F 19% 29.94 in 10.0 mi SW 18.4 mph - N/A   Clear
1:35 PM 85.8 °F 34.5 °F 16% 29.93 in 10.0 mi WSW 12.7 mph 17.3 mph N/A   Clear
1:55 PM 86.2 °F 32.5 °F 15% 29.92 in 10.0 mi SW 17.3 mph 21.9 mph N/A   Clear
2:15 PM 87.3 °F 32.5 °F 14% 29.90 in 10.0 mi WSW 15.0 mph 24.2 mph N/A   Clear
2:35 PM 87.1 °F 34.5 °F 15% 29.89 in 10.0 mi WSW 13.8 mph 19.6 mph N/A   Clear
2:55 PM 89.4 °F 33.4 °F 14% 29.89 in 10.0 mi WSW 11.5 mph 16.1 mph N/A   Clear
3:15 PM 89.4 °F 32.0 °F 13% 29.87 in 10.0 mi SW 13.8 mph 21.9 mph N/A   Clear
3:35 PM 90.7 °F 30.4 °F 12% 29.86 in 10.0 mi SW 13.8 mph 23.0 mph N/A   Clear
3:55 PM 91.0 °F 28.0 °F 10% 29.85 in 10.0 mi SW 18.4 mph 23.0 mph N/A   Clear
4:15 PM 90.7 °F 26.6 °F 10% 29.83 in 10.0 mi SW 11.5 mph 18.4 mph N/A   Clear
4:35 PM 92.3 °F 23.9 °F 8% 29.82 in 10.0 mi WSW 17.3 mph 24.2 mph N/A   Clear
4:55 PM 92.7 °F 20.5 °F 7% 29.82 in 10.0 mi WSW 18.4 mph 21.9 mph N/A   Clear
5:15 PM 92.5 °F 19.0 °F 7% 29.81 in 10.0 mi WSW 13.8 mph 19.6 mph N/A   Clear
5:35 PM 93.0 °F 17.4 °F 6% 29.80 in 10.0 mi WSW 17.3 mph 27.6 mph N/A   Clear
5:55 PM 93.4 °F 16.0 °F 6% 29.79 in 10.0 mi WSW 12.7 mph 25.3 mph N/A   Clear
6:15 PM 93.2 °F 16.3 °F 6% 29.78 in 10.0 mi SW 11.5 mph 18.4 mph N/A   Clear
6:35 PM 92.5 °F 15.4 °F 6% 29.78 in 10.0 mi SSW 13.8 mph 17.3 mph N/A   Clear
6:55 PM 91.6 °F 30.6 °F 11% 29.78 in 10.0 mi South 19.6 mph 27.6 mph N/A   Clear
7:15 PM 89.2 °F 33.3 °F 14% 29.78 in 10.0 mi South 19.6 mph 27.6 mph N/A   Clear
7:35 PM 87.8 °F 33.1 °F 14% 29.78 in 10.0 mi South 23.0 mph 27.6 mph N/A   Clear
7:55 PM 86.7 °F 33.8 °F 15% 29.78 in 10.0 mi South 17.3 mph 23.0 mph N/A   Clear
8:15 PM 85.1 °F 36.7 °F 18% 29.78 in 10.0 mi South 19.6 mph 23.0 mph N/A   Clear
8:35 PM 83.7 °F 37.9 °F 20% 29.79 in 10.0 mi South 16.1 mph 23.0 mph N/A   Clear
8:55 PM 82.6 °F 38.5 °F 21% 29.79 in 10.0 mi South 12.7 mph 23.0 mph N/A   Clear
9:15 PM 81.5 °F 39.6 °F 22% 29.80 in 10.0 mi South 11.5 mph - N/A   Clear
9:35 PM 80.6 °F 41.2 °F 25% 29.81 in 10.0 mi South 12.7 mph - N/A   Clear
9:55 PM 79.3 °F 41.9 °F 26% 29.81 in 10.0 mi South 12.7 mph 19.6 mph N/A   Clear
10:15 PM 78.4 °F 43.3 °F 29% 29.82 in 10.0 mi South 13.8 mph - N/A   Clear
10:35 PM 77.9 °F 43.5 °F 29% 29.82 in 10.0 mi South 16.1 mph - N/A   Clear
10:55 PM 76.8 °F 43.7 °F 31% 29.82 in 10.0 mi South 11.5 mph 18.4 mph N/A   Clear
11:15 PM 76.6 °F 44.4 °F 32% 29.82 in 10.0 mi South 13.8 mph 20.7 mph N/A   Clear
11:35 PM 76.1 °F 45.0 °F 33% 29.82 in 10.0 mi South 15.0 mph 19.6 mph N/A   Clear
11:55 PM 75.2 °F 46.0 °F 35% 29.82 in 10.0 mi South 15.0 mph 20.7 mph N/A   Clear